createdAt,value
2022-10-31T00:01:20.605Z,17.70
2022-10-31T00:03:48.457Z,17.77
2022-10-31T00:06:18.979Z,17.57
2022-10-31T00:08:53.716Z,17.15
2022-10-31T00:11:20.179Z,18.70
2022-10-31T00:13:46.677Z,18.73
2022-10-31T00:16:17.730Z,19.13
2022-10-31T00:18:44.521Z,17.97
2022-10-31T00:21:11.183Z,18.27
2022-10-31T00:23:38.411Z,17.90
2022-10-31T00:26:05.910Z,18.20
2022-10-31T00:28:33.016Z,17.95
2022-10-31T00:31:04.732Z,17.47
2022-10-31T00:33:31.508Z,17.10
2022-10-31T00:35:58.060Z,17.40
2022-10-31T00:38:24.524Z,16.92
2022-10-31T00:40:50.988Z,16.75
2022-10-31T00:43:17.561Z,16.13
2022-10-31T00:45:44.775Z,16.80
2022-10-31T00:48:11.790Z,17.40
2022-10-31T00:50:38.634Z,17.58
2022-10-31T00:53:05.130Z,17.98
2022-10-31T00:55:31.647Z,17.57
2022-10-31T00:57:58.470Z,17.75
2022-10-31T01:00:25.385Z,18.70
2022-10-31T01:02:51.971Z,19.30
2022-10-31T01:05:18.710Z,20.42
2022-10-31T01:07:45.227Z,18.60
2022-10-31T01:10:12.455Z,18.52
2022-10-31T01:12:50.219Z,18.65
2022-10-31T01:15:19.935Z,19.42
2022-10-31T01:17:46.681Z,19.40
2022-10-31T01:20:14.799Z,19.03
2022-10-31T01:22:42.982Z,18.98
2022-10-31T01:25:13.414Z,19.58
2022-10-31T01:27:40.166Z,19.48
2022-10-31T01:30:07.154Z,20.20
2022-10-31T01:32:33.738Z,18.97
2022-10-31T01:35:00.274Z,19.80
2022-10-31T01:37:26.934Z,20.10
2022-10-31T01:39:53.527Z,18.90
2022-10-31T01:42:22.353Z,19.38
2022-10-31T01:44:56.971Z,20.03
2022-10-31T01:47:34.701Z,20.00
2022-10-31T01:50:05.586Z,19.60
2022-10-31T01:52:37.341Z,20.70
2022-10-31T01:55:06.065Z,21.35
2022-10-31T01:57:35.237Z,20.23
2022-10-31T02:00:08.039Z,19.55
2022-10-31T02:02:34.815Z,19.80
2022-10-31T02:05:05.539Z,18.92
2022-10-31T02:07:43.710Z,19.27
2022-10-31T02:10:10.854Z,18.97
2022-10-31T02:12:37.494Z,18.90
2022-10-31T02:15:04.852Z,19.83
2022-10-31T02:17:32.623Z,22.00
2022-10-31T02:20:18.822Z,21.73
2022-10-31T02:23:06.512Z,21.80
2022-10-31T02:25:51.749Z,22.52
2022-10-31T02:28:31.158Z,21.27
2022-10-31T02:31:18.951Z,20.20
2022-10-31T02:33:58.990Z,20.17
2022-10-31T02:36:33.831Z,22.33
2022-10-31T02:39:10.945Z,21.73
2022-10-31T02:42:05.297Z,21.30
2022-10-31T02:44:37.649Z,20.77
2022-10-31T02:47:13.414Z,19.55
2022-10-31T02:49:44.368Z,19.33
2022-10-31T02:52:24.843Z,19.65
2022-10-31T02:54:52.107Z,20.02
2022-10-31T02:57:24.630Z,19.90
2022-10-31T02:59:59.283Z,20.25
2022-10-31T03:02:44.599Z,19.83
2022-10-31T03:05:35.918Z,19.00
2022-10-31T03:08:24.192Z,21.80
2022-10-31T03:11:02.615Z,22.92
2022-10-31T03:13:35.186Z,22.73
2022-10-31T03:16:26.500Z,26.17
2022-10-31T03:19:13.549Z,29.88
2022-10-31T03:21:50.455Z,27.90
2022-10-31T03:24:17.748Z,29.83
2022-10-31T03:26:50.689Z,31.40
2022-10-31T03:29:22.265Z,33.10
2022-10-31T03:32:21.475Z,32.20
2022-10-31T03:34:49.290Z,30.67
2022-10-31T03:37:19.633Z,32.05
2022-10-31T03:39:49.275Z,31.25
2022-10-31T03:42:21.733Z,29.27
2022-10-31T03:44:56.062Z,29.23
2022-10-31T03:47:23.133Z,28.40
2022-10-31T03:49:50.046Z,27.10
2022-10-31T03:52:34.721Z,28.52
2022-10-31T03:55:10.889Z,27.40
2022-10-31T03:57:46.151Z,26.77
2022-10-31T04:00:15.548Z,27.17
2022-10-31T04:02:51.067Z,25.40
2022-10-31T04:05:18.953Z,25.58
2022-10-31T04:07:50.161Z,25.93
2022-10-31T04:10:17.668Z,24.58
2022-10-31T04:12:49.232Z,26.08
2022-10-31T04:15:16.037Z,27.48
2022-10-31T04:17:46.080Z,27.20
2022-10-31T04:20:17.226Z,27.53
2022-10-31T04:22:44.013Z,25.13
2022-10-31T04:25:10.550Z,25.13
2022-10-31T04:27:37.823Z,24.13
2022-10-31T04:30:04.708Z,25.80
2022-10-31T04:32:31.306Z,26.30
2022-10-31T04:34:57.776Z,25.90
2022-10-31T04:37:24.317Z,25.52
2022-10-31T04:39:51.122Z,25.80
2022-10-31T04:42:17.603Z,24.38
2022-10-31T04:44:44.226Z,24.17
2022-10-31T04:47:10.798Z,22.42
2022-10-31T04:49:37.327Z,22.08
2022-10-31T04:52:03.975Z,20.92
2022-10-31T04:54:30.501Z,22.40
2022-10-31T04:56:57.037Z,21.40
2022-10-31T04:59:23.635Z,21.92
2022-10-31T05:01:50.299Z,21.25
2022-10-31T05:04:16.783Z,21.75
2022-10-31T05:06:43.367Z,22.15
2022-10-31T05:09:15.149Z,21.00
2022-10-31T05:11:41.723Z,19.75
2022-10-31T05:14:08.333Z,19.75
2022-10-31T05:16:34.867Z,18.63
2022-10-31T05:19:01.408Z,19.25
2022-10-31T05:21:27.999Z,18.97
2022-10-31T05:23:54.575Z,19.48
2022-10-31T05:26:21.097Z,18.67
2022-10-31T05:28:47.604Z,18.15
2022-10-31T05:31:14.858Z,19.70
2022-10-31T05:33:41.424Z,19.00
2022-10-31T05:36:08.219Z,19.45
2022-10-31T05:38:34.675Z,21.30
2022-10-31T05:41:02.079Z,20.30
2022-10-31T05:43:29.729Z,21.15
2022-10-31T05:45:57.426Z,21.07
2022-10-31T05:48:24.080Z,21.23
2022-10-31T05:50:50.811Z,20.48
2022-10-31T05:53:17.681Z,19.08
2022-10-31T05:55:44.479Z,19.48
2022-10-31T05:58:11.919Z,19.37
2022-10-31T06:00:38.922Z,19.05
2022-10-31T06:05:39.575Z,21.13
2022-10-31T06:08:06.273Z,21.15
2022-10-31T06:10:32.786Z,18.50
2022-10-31T06:12:59.273Z,18.60
2022-10-31T06:15:25.914Z,19.42
2022-10-31T06:18:04.739Z,18.77
2022-10-31T06:20:34.779Z,17.85
2022-10-31T06:23:02.161Z,18.53
2022-10-31T06:25:29.485Z,17.88
2022-10-31T06:27:56.899Z,19.00
2022-10-31T06:30:23.432Z,19.33
2022-10-31T06:32:50.721Z,18.65
2022-10-31T06:35:17.947Z,17.57
2022-10-31T06:37:52.072Z,19.30
2022-10-31T06:40:18.611Z,19.38
2022-10-31T06:42:45.200Z,18.85
2022-10-31T06:45:11.721Z,19.35
2022-10-31T06:47:56.759Z,19.03
2022-10-31T06:50:24.832Z,20.27
2022-10-31T06:52:59.042Z,19.50
2022-10-31T06:55:26.896Z,19.55
2022-10-31T06:58:02.021Z,19.33
2022-10-31T07:00:31.329Z,20.50
2022-10-31T07:03:11.254Z,20.77
2022-10-31T07:05:38.057Z,19.92
2022-10-31T07:08:10.948Z,19.48
2022-10-31T07:10:40.503Z,19.52
2022-10-31T07:13:12.323Z,18.40
2022-10-31T07:15:40.822Z,18.73
2022-10-31T07:18:09.573Z,18.00
2022-10-31T07:20:36.487Z,16.40
2022-10-31T07:23:05.091Z,16.83
2022-10-31T07:25:31.904Z,17.27
2022-10-31T07:27:58.805Z,16.38
2022-10-31T07:30:25.609Z,17.15
2022-10-31T07:32:52.191Z,16.10
2022-10-31T07:35:24.987Z,15.82
2022-10-31T07:37:55.747Z,15.73
2022-10-31T07:40:23.961Z,16.13
2022-10-31T07:42:53.023Z,15.00
2022-10-31T07:45:24.103Z,15.23
2022-10-31T07:47:52.328Z,15.60
2022-10-31T07:50:24.680Z,15.03
2022-10-31T07:53:07.626Z,14.93
2022-10-31T07:55:34.778Z,14.82
2022-10-31T07:58:04.481Z,15.73
2022-10-31T08:00:35.562Z,15.80
2022-10-31T08:03:07.337Z,14.43
2022-10-31T08:05:34.805Z,15.30
2022-10-31T08:08:01.929Z,15.85
2022-10-31T08:10:29.849Z,15.25
2022-10-31T08:13:01.334Z,14.98
2022-10-31T08:15:28.343Z,14.47
2022-10-31T08:17:55.160Z,15.27
2022-10-31T08:20:22.987Z,15.32
2022-10-31T08:22:56.544Z,14.80
2022-10-31T08:25:23.781Z,14.85
2022-10-31T08:27:54.994Z,14.90
2022-10-31T08:30:24.484Z,15.55
2022-10-31T08:33:03.181Z,14.85
2022-10-31T08:35:29.685Z,14.98
2022-10-31T08:37:57.843Z,15.82
2022-10-31T08:40:26.035Z,15.17
2022-10-31T08:43:06.356Z,15.88
2022-10-31T08:45:34.592Z,15.45
2022-10-31T08:48:03.581Z,15.65
2022-10-31T08:50:32.500Z,15.80
2022-10-31T08:53:05.940Z,16.20
2022-10-31T08:55:35.355Z,13.90
2022-10-31T08:58:02.959Z,15.23
2022-10-31T09:00:29.967Z,14.45
2022-10-31T09:03:04.837Z,13.90
2022-10-31T09:05:32.153Z,13.87
2022-10-31T09:08:00.490Z,12.80
2022-10-31T09:10:28.993Z,12.90
2022-10-31T09:12:58.994Z,12.05
2022-10-31T09:15:26.957Z,12.52
2022-10-31T09:17:54.069Z,11.93
2022-10-31T09:20:21.222Z,11.48
2022-10-31T09:22:47.811Z,11.55
2022-10-31T09:25:14.903Z,12.02
2022-10-31T09:27:41.417Z,12.52
2022-10-31T09:30:09.246Z,12.67
2022-10-31T09:32:35.701Z,12.73
2022-10-31T09:35:02.359Z,12.93
2022-10-31T09:37:28.990Z,12.38
2022-10-31T09:39:55.523Z,12.63
2022-10-31T09:42:40.769Z,13.03
2022-10-31T09:45:16.076Z,12.52
2022-10-31T09:48:20.932Z,12.68
2022-10-31T09:50:56.937Z,12.77
2022-10-31T09:53:42.107Z,12.43
2022-10-31T09:56:13.933Z,13.37
2022-10-31T09:58:43.938Z,13.32
2022-10-31T10:01:27.113Z,13.98
2022-10-31T10:03:58.803Z,14.38
2022-10-31T10:06:29.478Z,14.07
2022-10-31T10:08:56.989Z,13.57
2022-10-31T10:11:35.442Z,14.00
2022-10-31T10:14:14.072Z,14.68
2022-10-31T10:16:52.652Z,14.43
2022-10-31T10:19:40.293Z,14.45
2022-10-31T10:22:38.205Z,14.00
2022-10-31T10:25:10.556Z,14.18
2022-10-31T10:27:48.819Z,14.77
2022-10-31T10:30:23.886Z,14.98
2022-10-31T10:33:01.556Z,15.10
2022-10-31T10:35:39.079Z,14.00
2022-10-31T10:38:23.045Z,14.68
2022-10-31T10:40:50.090Z,14.98
2022-10-31T10:43:38.694Z,14.77
2022-10-31T10:46:23.697Z,15.10
2022-10-31T10:49:21.097Z,15.30
2022-10-31T10:52:02.660Z,15.95
2022-10-31T10:54:42.073Z,15.57
2022-10-31T10:57:29.843Z,15.48
2022-10-31T10:59:56.635Z,14.85
2022-10-31T11:02:26.025Z,14.57
2022-10-31T11:04:58.282Z,14.30
2022-10-31T11:07:24.797Z,15.82
2022-10-31T11:09:51.446Z,15.38
2022-10-31T11:12:32.917Z,15.77
2022-10-31T11:15:04.931Z,15.30
2022-10-31T11:17:34.828Z,15.82
2022-10-31T11:20:07.385Z,15.88
2022-10-31T11:22:34.049Z,15.40
2022-10-31T11:25:01.334Z,15.70
2022-10-31T11:27:28.084Z,15.10
2022-10-31T11:30:05.772Z,14.80
2022-10-31T11:32:32.647Z,15.23
2022-10-31T11:35:02.598Z,15.05
2022-10-31T11:37:36.124Z,13.82
2022-10-31T11:40:07.782Z,14.90
2022-10-31T11:42:40.842Z,15.10
2022-10-31T11:45:17.620Z,15.98
2022-10-31T11:47:59.652Z,14.70
2022-10-31T11:50:38.262Z,14.57
2022-10-31T11:53:12.837Z,14.37
2022-10-31T11:55:41.220Z,14.80
2022-10-31T11:58:25.939Z,14.07
2022-10-31T12:00:55.378Z,13.50
2022-10-31T12:03:25.196Z,13.63
2022-10-31T12:06:09.151Z,15.60
2022-10-31T12:08:37.553Z,13.98
2022-10-31T12:11:32.058Z,14.43
2022-10-31T12:14:31.147Z,13.82
2022-10-31T12:16:57.580Z,13.60
2022-10-31T12:19:35.995Z,13.30
2022-10-31T12:22:10.227Z,13.40
2022-10-31T12:25:01.262Z,13.55
2022-10-31T12:28:00.319Z,14.57
2022-10-31T12:30:50.273Z,14.95
2022-10-31T12:33:38.997Z,15.33
2022-10-31T12:36:15.422Z,14.88
2022-10-31T12:39:07.322Z,15.68
2022-10-31T12:41:47.266Z,16.00
2022-10-31T12:44:30.815Z,15.48
2022-10-31T12:46:57.481Z,15.57
2022-10-31T12:49:42.440Z,16.10
2022-10-31T12:52:34.889Z,15.82
2022-10-31T12:55:27.316Z,16.13
2022-10-31T12:57:59.509Z,16.58
2022-10-31T13:00:30.400Z,17.23
2022-10-31T13:03:10.476Z,16.67
2022-10-31T13:05:47.312Z,17.30
2022-10-31T13:08:18.125Z,16.88
2022-10-31T13:10:48.949Z,18.23
2022-10-31T13:13:27.688Z,17.23
2022-10-31T13:15:58.563Z,17.35
2022-10-31T13:19:03.598Z,18.98
2022-10-31T13:21:42.496Z,17.95
2022-10-31T13:24:17.415Z,18.88
2022-10-31T13:27:00.232Z,19.13
2022-10-31T13:30:01.650Z,19.48
2022-10-31T13:32:38.195Z,20.50
2022-10-31T13:35:08.628Z,21.13
2022-10-31T13:37:42.745Z,21.13
2022-10-31T13:40:39.048Z,21.03
2022-10-31T13:43:18.009Z,22.02
2022-10-31T13:45:53.021Z,21.70
2022-10-31T13:48:35.590Z,23.00
2022-10-31T13:51:07.203Z,21.98
2022-10-31T13:54:01.011Z,23.07
2022-10-31T13:56:33.888Z,21.23
2022-10-31T13:59:07.917Z,23.08
2022-10-31T14:01:34.963Z,21.92
2022-10-31T14:04:14.748Z,22.73
2022-10-31T14:07:26.169Z,22.90
2022-10-31T14:10:29.653Z,23.15
2022-10-31T14:13:25.665Z,22.88
2022-10-31T14:16:02.885Z,22.67
2022-10-31T14:18:36.185Z,22.65
2022-10-31T14:21:14.425Z,22.93
2022-10-31T14:23:41.640Z,22.63
2022-10-31T14:26:21.900Z,23.13
2022-10-31T14:28:50.874Z,22.08
2022-10-31T14:31:38.856Z,22.33
2022-10-31T14:34:23.810Z,22.33
2022-10-31T14:37:05.832Z,20.90
2022-10-31T14:40:17.861Z,21.60
2022-10-31T14:42:59.030Z,21.92
2022-10-31T14:45:31.670Z,22.63
2022-10-31T14:48:34.143Z,21.50
2022-10-31T14:51:20.399Z,21.70
2022-10-31T14:53:50.246Z,21.75
2022-10-31T14:56:31.385Z,21.70
2022-10-31T14:59:02.185Z,21.77
2022-10-31T15:01:32.295Z,20.97
2022-10-31T15:04:22.228Z,22.00
2022-10-31T15:06:55.049Z,20.33
2022-10-31T15:09:22.690Z,18.98
2022-10-31T15:11:49.273Z,20.35
2022-10-31T15:14:26.448Z,21.07
2022-10-31T15:16:53.215Z,23.73
2022-10-31T15:19:33.215Z,25.25
2022-10-31T15:22:00.222Z,23.02
2022-10-31T15:24:35.519Z,25.70
2022-10-31T15:27:05.200Z,26.20
2022-10-31T15:29:32.431Z,26.73
2022-10-31T15:32:13.919Z,26.48
2022-10-31T15:34:45.164Z,23.25
2022-10-31T15:37:14.654Z,22.15
2022-10-31T15:39:41.749Z,26.03
2022-10-31T15:42:36.419Z,27.95
2022-10-31T15:45:17.005Z,28.50
2022-10-31T15:48:00.103Z,38.20
2022-10-31T15:50:33.415Z,27.00
2022-10-31T15:53:01.556Z,24.00
2022-10-31T15:55:33.190Z,22.33
2022-10-31T15:58:05.593Z,24.42
2022-10-31T16:00:35.177Z,23.35
2022-10-31T16:03:16.605Z,23.17
2022-10-31T16:05:54.936Z,23.27
2022-10-31T16:08:30.689Z,25.30
2022-10-31T16:10:59.102Z,29.15
2022-10-31T16:13:32.114Z,24.13
2022-10-31T16:16:33.452Z,22.67
2022-10-31T16:18:51.016Z,22.50
2022-10-31T16:21:25.055Z,25.67
2022-10-31T16:23:58.169Z,27.75
2022-10-31T16:26:25.895Z,27.50
2022-10-31T16:29:03.239Z,26.30
2022-10-31T16:31:38.347Z,23.80
2022-10-31T16:34:26.382Z,22.83
2022-10-31T16:36:54.224Z,23.15
2022-10-31T16:39:21.078Z,25.13
2022-10-31T16:41:51.519Z,31.98
2022-10-31T16:44:26.832Z,26.77
2022-10-31T16:47:14.783Z,28.80
2022-10-31T16:49:43.205Z,26.45
2022-10-31T16:52:09.748Z,23.65
2022-10-31T16:54:36.324Z,24.42
2022-10-31T16:57:04.876Z,23.90
2022-10-31T16:59:34.198Z,23.52
2022-10-31T17:02:01.983Z,21.08
2022-10-31T17:04:29.448Z,20.92
2022-10-31T17:06:56.014Z,21.30
2022-10-31T17:09:22.756Z,20.57
2022-10-31T17:11:52.183Z,23.77
2022-10-31T17:14:19.524Z,23.75
2022-10-31T17:16:46.014Z,22.73
2022-10-31T17:19:13.081Z,24.60
2022-10-31T17:21:40.595Z,23.67
2022-10-31T17:24:08.990Z,24.42
2022-10-31T17:26:35.552Z,22.63
2022-10-31T17:29:03.483Z,25.13
2022-10-31T17:31:32.895Z,25.00
2022-10-31T17:34:02.592Z,20.57
2022-10-31T17:36:30.767Z,19.23
2022-10-31T17:38:57.424Z,19.70
2022-10-31T17:41:23.958Z,20.02
2022-10-31T17:43:55.679Z,24.17
2022-10-31T17:46:22.428Z,21.67
2022-10-31T17:48:48.941Z,20.33
2022-10-31T17:51:15.487Z,21.40
2022-10-31T17:53:42.026Z,20.27
2022-10-31T17:56:09.712Z,21.92
2022-10-31T17:58:37.873Z,20.33
2022-10-31T18:01:10.515Z,21.50
2022-10-31T18:03:38.224Z,21.33
2022-10-31T18:06:05.393Z,22.67
2022-10-31T18:08:35.735Z,22.45
2022-10-31T18:11:11.013Z,23.37
2022-10-31T18:13:38.851Z,23.30
2022-10-31T18:16:23.728Z,24.80
2022-10-31T18:18:52.683Z,25.60
2022-10-31T18:21:20.205Z,31.63
2022-10-31T18:23:47.736Z,29.30
2022-10-31T18:26:14.325Z,29.10
2022-10-31T18:28:40.801Z,29.38
2022-10-31T18:31:07.353Z,31.13
2022-10-31T18:33:33.866Z,30.75
2022-10-31T18:36:05.907Z,27.77
2022-10-31T18:38:33.477Z,27.85
2022-10-31T18:41:00.003Z,27.42
2022-10-31T18:43:26.640Z,26.83
2022-10-31T18:45:57.799Z,26.17
2022-10-31T18:48:24.956Z,27.93
2022-10-31T18:50:51.645Z,28.77
2022-10-31T18:53:18.199Z,32.72
2022-10-31T18:55:49.088Z,31.80
2022-10-31T18:58:16.981Z,33.67
2022-10-31T19:00:43.707Z,35.87
2022-10-31T19:03:10.267Z,36.05
2022-10-31T19:05:36.778Z,33.00
2022-10-31T19:08:03.659Z,34.03
2022-10-31T19:10:30.225Z,29.88
2022-10-31T19:12:56.712Z,26.03
2022-10-31T19:15:23.184Z,29.60
2022-10-31T19:17:49.852Z,26.90
2022-10-31T19:20:16.491Z,29.58
2022-10-31T19:22:43.328Z,24.65
2022-10-31T19:25:10.965Z,26.97
2022-10-31T19:27:38.535Z,26.38
2022-10-31T19:30:06.726Z,24.27
2022-10-31T19:32:33.640Z,24.42
2022-10-31T19:35:00.391Z,24.50
2022-10-31T19:37:27.029Z,34.93
2022-10-31T19:39:54.132Z,35.38
2022-10-31T19:42:20.687Z,34.10
2022-10-31T19:44:47.211Z,29.88
2022-10-31T19:47:13.814Z,28.02
2022-10-31T19:49:40.361Z,27.27
2022-10-31T19:52:07.204Z,27.88
2022-10-31T19:54:33.722Z,32.17
2022-10-31T19:57:00.211Z,26.73
2022-10-31T19:59:26.710Z,26.25
2022-10-31T20:01:53.233Z,25.23
2022-10-31T20:04:19.928Z,24.38
2022-10-31T20:06:46.509Z,23.58
2022-10-31T20:09:14.666Z,23.95
2022-10-31T20:11:43.166Z,23.50
2022-10-31T20:14:15.849Z,23.33
2022-10-31T20:16:42.945Z,25.30
2022-10-31T20:19:12.263Z,27.40
2022-10-31T20:21:42.632Z,28.70
2022-10-31T20:24:10.729Z,25.58
2022-10-31T20:26:40.580Z,25.70
2022-10-31T20:29:07.621Z,24.55
2022-10-31T20:31:36.465Z,30.52
2022-10-31T20:34:03.561Z,27.25
2022-10-31T20:36:30.888Z,32.88
2022-10-31T20:38:58.473Z,24.00
2022-10-31T20:41:25.452Z,29.58
2022-10-31T20:43:52.539Z,29.05
2022-10-31T20:46:24.836Z,34.40
2022-10-31T20:48:52.068Z,30.13
2022-10-31T20:51:28.236Z,26.77
2022-10-31T20:53:56.821Z,25.00
2022-10-31T20:56:25.808Z,25.88
2022-10-31T20:58:54.264Z,25.73
2022-10-31T21:01:27.037Z,25.27
2022-10-31T21:03:54.639Z,24.07
2022-10-31T21:06:25.447Z,24.13
2022-10-31T21:08:56.174Z,24.92
2022-10-31T21:11:25.310Z,24.02
2022-10-31T21:13:54.478Z,24.85
2022-10-31T21:16:24.319Z,26.37
2022-10-31T21:18:51.922Z,25.73
2022-10-31T21:21:23.373Z,27.88
2022-10-31T21:23:57.690Z,28.95
2022-10-31T21:26:27.241Z,25.40
2022-10-31T21:28:56.392Z,24.60
2022-10-31T21:31:23.559Z,27.13
2022-10-31T21:33:50.220Z,26.65
2022-10-31T21:36:16.798Z,28.30
2022-10-31T21:38:44.091Z,26.10
2022-10-31T21:41:15.656Z,25.70
2022-10-31T21:43:44.250Z,25.20
2022-10-31T21:46:17.754Z,24.95
2022-10-31T21:48:45.025Z,25.92
2022-10-31T21:51:15.586Z,26.00
2022-10-31T21:54:01.392Z,26.17
2022-10-31T21:56:28.310Z,27.23
2022-10-31T21:58:55.690Z,24.88
2022-10-31T22:01:23.775Z,25.48
2022-10-31T22:03:50.465Z,24.73
2022-10-31T22:06:17.232Z,23.73
2022-10-31T22:08:43.915Z,23.60
2022-10-31T22:11:13.626Z,24.50
2022-10-31T22:13:41.363Z,22.48
2022-10-31T22:16:09.891Z,23.20
2022-10-31T22:18:36.795Z,21.97
2022-10-31T22:21:05.792Z,23.55
2022-10-31T22:23:33.103Z,22.15
2022-10-31T22:26:07.324Z,22.15
2022-10-31T22:28:34.946Z,22.00
2022-10-31T22:31:05.963Z,22.00
2022-10-31T22:33:32.698Z,21.45
2022-10-31T22:36:03.667Z,21.77
2022-10-31T22:38:34.394Z,21.80
2022-10-31T22:41:01.939Z,22.30
2022-10-31T22:43:28.409Z,22.10
2022-10-31T22:45:55.949Z,22.27
2022-10-31T22:48:22.510Z,22.80
2022-10-31T22:50:48.987Z,23.10
2022-10-31T22:53:15.822Z,23.08
2022-10-31T22:55:42.462Z,23.33
2022-10-31T22:58:08.933Z,22.90
2022-10-31T23:00:35.665Z,22.40
2022-10-31T23:03:02.205Z,22.42
2022-10-31T23:05:28.695Z,23.33
2022-10-31T23:07:55.177Z,22.97
2022-10-31T23:10:21.703Z,23.02
2022-10-31T23:13:06.996Z,24.13
2022-10-31T23:15:37.666Z,22.58
2022-10-31T23:18:05.168Z,22.45
2022-10-31T23:20:37.583Z,23.97
2022-10-31T23:23:04.602Z,23.08
2022-10-31T23:25:49.884Z,23.48
2022-10-31T23:28:16.426Z,23.67
2022-10-31T23:30:45.488Z,24.13
2022-10-31T23:33:12.070Z,23.50
2022-10-31T23:35:38.607Z,23.50
2022-10-31T23:38:05.258Z,23.95
2022-10-31T23:40:32.153Z,23.08
2022-10-31T23:42:58.819Z,23.70
2022-10-31T23:45:25.602Z,24.60
2022-10-31T23:47:52.084Z,25.17
2022-10-31T23:50:18.832Z,23.98
2022-10-31T23:52:45.305Z,24.92
2022-10-31T23:55:11.774Z,24.90
2022-10-31T23:57:38.239Z,25.40
